Arock, Oregon
Current Conditions -  °F | °C
As of 2:35 AM on Sunday 26 Oct 2014 (Local Time) from KEUL Reporting Station
Overcast Overcast  
Wind Chill: 13°   Ceiling: 9500
Heat Index: 13°   Visibility: 10mi
Dew Point:   Wind: 8mph
Humidity: 47%   Direction: 310°NW
Pressure: 29.96"   Gusts: NA
Location:  42.91°N, 117.53°W
Report Text: KEUL 260835Z AUTO 31007KT 10SM OVC095 13/02 A2996 RMK AO1
Loading
Personal Weather Stations






























Interactive Weather Map
Tropical Storm Tracking
New forecast layout! Learn more

10-Day Weather Forecast

Advertisements
Track Severe Weather on mobile